sensor_id;sensor_type;location;lat;lon;timestamp;temperature;humidity
81216;DHT22;70688;52.492;13.420;2023-07-31T00:00:36;17.20;73.40
81216;DHT22;70688;52.492;13.420;2023-07-31T00:03:01;17.00;73.40
81216;DHT22;70688;52.492;13.420;2023-07-31T00:05:27;16.90;75.90
81216;DHT22;70688;52.492;13.420;2023-07-31T00:07:52;16.80;75.20
81216;DHT22;70688;52.492;13.420;2023-07-31T00:10:20;16.70;74.80
81216;DHT22;70688;52.492;13.420;2023-07-31T00:12:46;16.70;75.20
81216;DHT22;70688;52.492;13.420;2023-07-31T00:15:13;16.80;75.30
81216;DHT22;70688;52.492;13.420;2023-07-31T00:17:39;16.90;74.60
81216;DHT22;70688;52.492;13.420;2023-07-31T00:20:05;16.90;74.40
81216;DHT22;70688;52.492;13.420;2023-07-31T00:22:31;16.80;75.00
81216;DHT22;70688;52.492;13.420;2023-07-31T00:24:57;16.80;74.90
81216;DHT22;70688;52.492;13.420;2023-07-31T00:27:23;16.80;74.80
81216;DHT22;70688;52.492;13.420;2023-07-31T00:29:48;16.80;74.70
81216;DHT22;70688;52.492;13.420;2023-07-31T00:32:14;16.80;75.00
81216;DHT22;70688;52.492;13.420;2023-07-31T00:34:40;16.90;75.00
81216;DHT22;70688;52.492;13.420;2023-07-31T00:37:05;16.70;74.70
81216;DHT22;70688;52.492;13.420;2023-07-31T00:39:34;16.80;74.90
81216;DHT22;70688;52.492;13.420;2023-07-31T00:41:59;16.80;75.20
81216;DHT22;70688;52.492;13.420;2023-07-31T00:44:25;16.90;74.50
81216;DHT22;70688;52.492;13.420;2023-07-31T00:46:51;17.10;73.40
81216;DHT22;70688;52.492;13.420;2023-07-31T00:49:16;17.30;72.80
81216;DHT22;70688;52.492;13.420;2023-07-31T00:51:42;17.10;73.80
81216;DHT22;70688;52.492;13.420;2023-07-31T00:54:07;17.20;73.30
81216;DHT22;70688;52.492;13.420;2023-07-31T00:56:33;17.40;72.40
81216;DHT22;70688;52.492;13.420;2023-07-31T00:58:59;17.60;71.80
81216;DHT22;70688;52.492;13.420;2023-07-31T01:01:25;17.50;72.10
81216;DHT22;70688;52.492;13.420;2023-07-31T01:03:51;17.40;73.10
81216;DHT22;70688;52.492;13.420;2023-07-31T01:09:12;17.30;73.60
81216;DHT22;70688;52.492;13.420;2023-07-31T01:11:57;17.10;74.80
81216;DHT22;70688;52.492;13.420;2023-07-31T01:14:22;17.20;74.60
81216;DHT22;70688;52.492;13.420;2023-07-31T01:16:48;17.40;74.40
81216;DHT22;70688;52.492;13.420;2023-07-31T01:19:15;17.50;74.10
81216;DHT22;70688;52.492;13.420;2023-07-31T01:27:06;17.70;71.60
81216;DHT22;70688;52.492;13.420;2023-07-31T01:30:16;17.70;72.60
81216;DHT22;70688;52.492;13.420;2023-07-31T01:32:23;17.60;72.50
81216;DHT22;70688;52.492;13.420;2023-07-31T01:34:51;17.50;72.50
81216;DHT22;70688;52.492;13.420;2023-07-31T01:37:17;17.60;72.50
81216;DHT22;70688;52.492;13.420;2023-07-31T01:39:43;17.40;72.80
81216;DHT22;70688;52.492;13.420;2023-07-31T01:42:08;17.70;71.70
81216;DHT22;70688;52.492;13.420;2023-07-31T01:44:34;17.70;71.90
81216;DHT22;70688;52.492;13.420;2023-07-31T01:47:00;17.70;72.60
81216;DHT22;70688;52.492;13.420;2023-07-31T01:49:25;17.70;72.50
81216;DHT22;70688;52.492;13.420;2023-07-31T01:51:51;17.80;71.30
81216;DHT22;70688;52.492;13.420;2023-07-31T01:54:17;17.80;71.20
81216;DHT22;70688;52.492;13.420;2023-07-31T01:56:42;17.50;73.20
81216;DHT22;70688;52.492;13.420;2023-07-31T01:59:08;17.70;72.60
81216;DHT22;70688;52.492;13.420;2023-07-31T02:01:33;17.90;70.90
81216;DHT22;70688;52.492;13.420;2023-07-31T02:03:59;17.80;71.00
81216;DHT22;70688;52.492;13.420;2023-07-31T02:06:25;17.40;73.10
81216;DHT22;70688;52.492;13.420;2023-07-31T02:08:50;17.40;75.50
81216;DHT22;70688;52.492;13.420;2023-07-31T02:11:16;17.50;74.00
81216;DHT22;70688;52.492;13.420;2023-07-31T02:13:41;17.40;74.50
81216;DHT22;70688;52.492;13.420;2023-07-31T02:16:07;17.30;75.00
81216;DHT22;70688;52.492;13.420;2023-07-31T02:18:32;17.30;74.50
81216;DHT22;70688;52.492;13.420;2023-07-31T02:20:58;17.30;74.70
81216;DHT22;70688;52.492;13.420;2023-07-31T02:23:24;17.50;73.70
81216;DHT22;70688;52.492;13.420;2023-07-31T02:25:49;17.90;71.80
81216;DHT22;70688;52.492;13.420;2023-07-31T02:28:15;18.00;70.90
81216;DHT22;70688;52.492;13.420;2023-07-31T02:30:44;17.60;73.60
81216;DHT22;70688;52.492;13.420;2023-07-31T02:33:10;17.30;74.90
81216;DHT22;70688;52.492;13.420;2023-07-31T02:35:35;17.10;75.50
81216;DHT22;70688;52.492;13.420;2023-07-31T02:38:01;17.00;76.30
81216;DHT22;70688;52.492;13.420;2023-07-31T02:40:27;17.20;75.70
81216;DHT22;70688;52.492;13.420;2023-07-31T02:42:52;17.30;75.00
81216;DHT22;70688;52.492;13.420;2023-07-31T02:45:18;17.40;73.30
81216;DHT22;70688;52.492;13.420;2023-07-31T02:47:43;17.40;73.30
81216;DHT22;70688;52.492;13.420;2023-07-31T02:50:09;17.60;72.40
81216;DHT22;70688;52.492;13.420;2023-07-31T02:52:35;17.70;72.60
81216;DHT22;70688;52.492;13.420;2023-07-31T02:55:02;17.70;72.20
81216;DHT22;70688;52.492;13.420;2023-07-31T02:57:27;17.50;73.80
81216;DHT22;70688;52.492;13.420;2023-07-31T02:59:53;17.70;72.60
81216;DHT22;70688;52.492;13.420;2023-07-31T03:02:18;17.80;72.60
81216;DHT22;70688;52.492;13.420;2023-07-31T03:04:44;17.80;72.60
81216;DHT22;70688;52.492;13.420;2023-07-31T03:07:10;17.80;72.30
81216;DHT22;70688;52.492;13.420;2023-07-31T03:09:35;17.80;72.00
81216;DHT22;70688;52.492;13.420;2023-07-31T03:12:01;17.80;71.80
81216;DHT22;70688;52.492;13.420;2023-07-31T03:14:26;17.60;72.20
81216;DHT22;70688;52.492;13.420;2023-07-31T03:16:52;17.60;73.00
81216;DHT22;70688;52.492;13.420;2023-07-31T03:19:18;17.70;72.70
81216;DHT22;70688;52.492;13.420;2023-07-31T03:21:43;17.70;72.60
81216;DHT22;70688;52.492;13.420;2023-07-31T03:24:09;17.60;72.50
81216;DHT22;70688;52.492;13.420;2023-07-31T03:26:34;17.60;73.50
81216;DHT22;70688;52.492;13.420;2023-07-31T03:29:01;17.70;72.60
81216;DHT22;70688;52.492;13.420;2023-07-31T03:31:27;17.60;73.60
81216;DHT22;70688;52.492;13.420;2023-07-31T03:33:52;17.60;73.10
81216;DHT22;70688;52.492;13.420;2023-07-31T03:36:18;17.50;74.30
81216;DHT22;70688;52.492;13.420;2023-07-31T03:38:44;17.50;74.70
81216;DHT22;70688;52.492;13.420;2023-07-31T03:41:09;17.60;74.20
81216;DHT22;70688;52.492;13.420;2023-07-31T03:43:36;17.50;74.70
81216;DHT22;70688;52.492;13.420;2023-07-31T03:46:01;17.60;74.50
81216;DHT22;70688;52.492;13.420;2023-07-31T03:48:28;17.60;74.20
81216;DHT22;70688;52.492;13.420;2023-07-31T03:50:54;17.50;76.10
81216;DHT22;70688;52.492;13.420;2023-07-31T03:53:19;17.30;76.10
81216;DHT22;70688;52.492;13.420;2023-07-31T03:55:45;17.10;77.00
81216;DHT22;70688;52.492;13.420;2023-07-31T03:58:11;17.10;77.10
81216;DHT22;70688;52.492;13.420;2023-07-31T04:00:36;17.00;77.70
81216;DHT22;70688;52.492;13.420;2023-07-31T04:03:02;17.10;77.20
81216;DHT22;70688;52.492;13.420;2023-07-31T04:05:30;17.20;76.70
81216;DHT22;70688;52.492;13.420;2023-07-31T04:07:55;17.00;77.00
81216;DHT22;70688;52.492;13.420;2023-07-31T04:10:21;17.00;77.30
81216;DHT22;70688;52.492;13.420;2023-07-31T04:12:46;17.20;77.00
81216;DHT22;70688;52.492;13.420;2023-07-31T04:15:12;17.40;76.50
81216;DHT22;70688;52.492;13.420;2023-07-31T04:17:37;17.60;75.10
81216;DHT22;70688;52.492;13.420;2023-07-31T04:20:03;17.50;75.20
81216;DHT22;70688;52.492;13.420;2023-07-31T04:22:29;17.30;75.90
81216;DHT22;70688;52.492;13.420;2023-07-31T04:24:55;17.40;76.10
81216;DHT22;70688;52.492;13.420;2023-07-31T04:27:20;17.40;76.00
81216;DHT22;70688;52.492;13.420;2023-07-31T04:29:46;17.50;75.50
81216;DHT22;70688;52.492;13.420;2023-07-31T04:32:13;17.40;75.50
81216;DHT22;70688;52.492;13.420;2023-07-31T04:34:38;17.60;75.10
81216;DHT22;70688;52.492;13.420;2023-07-31T04:37:04;17.40;75.50
81216;DHT22;70688;52.492;13.420;2023-07-31T04:39:29;17.50;75.60
81216;DHT22;70688;52.492;13.420;2023-07-31T04:41:55;17.50;75.80
81216;DHT22;70688;52.492;13.420;2023-07-31T04:44:20;17.60;74.80
81216;DHT22;70688;52.492;13.420;2023-07-31T04:46:46;17.80;73.70
81216;DHT22;70688;52.492;13.420;2023-07-31T04:49:12;17.70;74.10
81216;DHT22;70688;52.492;13.420;2023-07-31T04:51:37;17.50;75.70
81216;DHT22;70688;52.492;13.420;2023-07-31T04:54:03;17.30;76.80
81216;DHT22;70688;52.492;13.420;2023-07-31T04:56:28;17.40;76.60
81216;DHT22;70688;52.492;13.420;2023-07-31T04:58:54;17.50;75.70
81216;DHT22;70688;52.492;13.420;2023-07-31T05:01:20;17.60;75.30
81216;DHT22;70688;52.492;13.420;2023-07-31T05:03:46;17.60;75.40
81216;DHT22;70688;52.492;13.420;2023-07-31T05:06:11;17.70;75.50
81216;DHT22;70688;52.492;13.420;2023-07-31T05:08:38;17.90;74.00
81216;DHT22;70688;52.492;13.420;2023-07-31T05:11:04;17.90;73.70
81216;DHT22;70688;52.492;13.420;2023-07-31T05:13:30;18.00;73.20
81216;DHT22;70688;52.492;13.420;2023-07-31T05:15:56;18.00;73.80
81216;DHT22;70688;52.492;13.420;2023-07-31T05:18:21;18.10;73.40
81216;DHT22;70688;52.492;13.420;2023-07-31T05:20:47;18.10;73.50
81216;DHT22;70688;52.492;13.420;2023-07-31T05:23:12;18.20;74.20
81216;DHT22;70688;52.492;13.420;2023-07-31T05:25:38;18.30;73.00
81216;DHT22;70688;52.492;13.420;2023-07-31T05:28:03;18.30;71.90
81216;DHT22;70688;52.492;13.420;2023-07-31T05:30:32;18.50;72.40
81216;DHT22;70688;52.492;13.420;2023-07-31T05:32:58;18.40;72.20
81216;DHT22;70688;52.492;13.420;2023-07-31T05:35:23;18.30;72.90
81216;DHT22;70688;52.492;13.420;2023-07-31T05:37:49;18.10;73.90
81216;DHT22;70688;52.492;13.420;2023-07-31T05:40:15;18.00;73.90
81216;DHT22;70688;52.492;13.420;2023-07-31T05:42:40;18.20;73.30
81216;DHT22;70688;52.492;13.420;2023-07-31T05:45:07;18.40;72.90
81216;DHT22;70688;52.492;13.420;2023-07-31T05:47:33;18.20;72.60
81216;DHT22;70688;52.492;13.420;2023-07-31T05:49:58;18.30;72.50
81216;DHT22;70688;52.492;13.420;2023-07-31T05:52:24;18.30;72.90
81216;DHT22;70688;52.492;13.420;2023-07-31T05:54:50;18.20;73.90
81216;DHT22;70688;52.492;13.420;2023-07-31T05:57:16;18.00;74.70
81216;DHT22;70688;52.492;13.420;2023-07-31T05:59:42;17.90;74.10
81216;DHT22;70688;52.492;13.420;2023-07-31T06:02:08;18.10;74.20
81216;DHT22;70688;52.492;13.420;2023-07-31T06:04:33;18.20;73.30
81216;DHT22;70688;52.492;13.420;2023-07-31T06:07:00;18.00;74.50
81216;DHT22;70688;52.492;13.420;2023-07-31T06:09:26;18.30;72.90
81216;DHT22;70688;52.492;13.420;2023-07-31T06:11:51;18.40;72.70
81216;DHT22;70688;52.492;13.420;2023-07-31T06:14:17;18.30;72.60
81216;DHT22;70688;52.492;13.420;2023-07-31T06:16:44;18.20;72.60
81216;DHT22;70688;52.492;13.420;2023-07-31T06:19:09;18.20;73.50
81216;DHT22;70688;52.492;13.420;2023-07-31T06:21:35;18.30;72.90
81216;DHT22;70688;52.492;13.420;2023-07-31T06:24:03;18.20;72.80
81216;DHT22;70688;52.492;13.420;2023-07-31T06:26:29;18.20;73.90
81216;DHT22;70688;52.492;13.420;2023-07-31T06:28:55;18.40;72.70
81216;DHT22;70688;52.492;13.420;2023-07-31T06:31:20;18.40;73.20
81216;DHT22;70688;52.492;13.420;2023-07-31T06:33:49;18.70;71.80
81216;DHT22;70688;52.492;13.420;2023-07-31T06:36:14;18.50;73.40
81216;DHT22;70688;52.492;13.420;2023-07-31T06:38:40;18.60;72.70
81216;DHT22;70688;52.492;13.420;2023-07-31T06:41:06;18.60;73.10
81216;DHT22;70688;52.492;13.420;2023-07-31T06:43:31;18.80;72.10
81216;DHT22;70688;52.492;13.420;2023-07-31T06:45:57;18.70;73.00
81216;DHT22;70688;52.492;13.420;2023-07-31T06:48:22;18.70;72.70
81216;DHT22;70688;52.492;13.420;2023-07-31T06:50:48;18.90;72.00
81216;DHT22;70688;52.492;13.420;2023-07-31T06:53:14;19.00;71.70
81216;DHT22;70688;52.492;13.420;2023-07-31T06:55:39;19.30;70.40
81216;DHT22;70688;52.492;13.420;2023-07-31T06:58:05;19.10;70.70
81216;DHT22;70688;52.492;13.420;2023-07-31T07:00:30;19.00;70.80
81216;DHT22;70688;52.492;13.420;2023-07-31T07:02:57;18.80;72.40
81216;DHT22;70688;52.492;13.420;2023-07-31T07:05:23;18.90;72.30
81216;DHT22;70688;52.492;13.420;2023-07-31T07:07:50;18.90;71.90
81216;DHT22;70688;52.492;13.420;2023-07-31T07:10:17;18.90;71.50
81216;DHT22;70688;52.492;13.420;2023-07-31T07:12:42;19.10;71.40
81216;DHT22;70688;52.492;13.420;2023-07-31T07:15:08;19.30;70.40
81216;DHT22;70688;52.492;13.420;2023-07-31T07:17:34;19.20;70.90
81216;DHT22;70688;52.492;13.420;2023-07-31T07:20:00;18.90;72.20
81216;DHT22;70688;52.492;13.420;2023-07-31T07:22:26;18.60;73.10
81216;DHT22;70688;52.492;13.420;2023-07-31T07:24:52;18.60;73.10
81216;DHT22;70688;52.492;13.420;2023-07-31T07:27:18;18.60;73.90
81216;DHT22;70688;52.492;13.420;2023-07-31T07:29:45;18.80;72.50
81216;DHT22;70688;52.492;13.420;2023-07-31T07:32:10;18.90;71.80
81216;DHT22;70688;52.492;13.420;2023-07-31T07:34:37;19.40;70.40
81216;DHT22;70688;52.492;13.420;2023-07-31T07:37:03;19.80;68.00
81216;DHT22;70688;52.492;13.420;2023-07-31T07:39:28;20.10;67.20
81216;DHT22;70688;52.492;13.420;2023-07-31T07:41:54;19.90;67.00
81216;DHT22;70688;52.492;13.420;2023-07-31T07:44:20;20.00;67.50
81216;DHT22;70688;52.492;13.420;2023-07-31T07:46:45;20.10;66.60
81216;DHT22;70688;52.492;13.420;2023-07-31T07:49:11;20.00;67.20
81216;DHT22;70688;52.492;13.420;2023-07-31T07:51:36;20.20;65.80
81216;DHT22;70688;52.492;13.420;2023-07-31T07:54:02;20.60;65.10
81216;DHT22;70688;52.492;13.420;2023-07-31T07:56:28;20.70;64.60
81216;DHT22;70688;52.492;13.420;2023-07-31T07:58:54;20.60;65.40
81216;DHT22;70688;52.492;13.420;2023-07-31T08:01:20;20.40;64.90
81216;DHT22;70688;52.492;13.420;2023-07-31T08:03:46;20.20;66.20
81216;DHT22;70688;52.492;13.420;2023-07-31T08:06:12;19.90;68.20
81216;DHT22;70688;52.492;13.420;2023-07-31T08:08:38;19.90;68.00
81216;DHT22;70688;52.492;13.420;2023-07-31T08:11:04;20.00;67.40
81216;DHT22;70688;52.492;13.420;2023-07-31T08:13:30;19.90;67.80
81216;DHT22;70688;52.492;13.420;2023-07-31T08:15:56;19.90;68.40
81216;DHT22;70688;52.492;13.420;2023-07-31T08:18:21;19.90;68.60
81216;DHT22;70688;52.492;13.420;2023-07-31T08:20:47;19.70;69.60
81216;DHT22;70688;52.492;13.420;2023-07-31T08:23:13;19.80;68.60
81216;DHT22;70688;52.492;13.420;2023-07-31T08:25:39;19.90;68.70
81216;DHT22;70688;52.492;13.420;2023-07-31T08:28:05;19.60;69.80
81216;DHT22;70688;52.492;13.420;2023-07-31T08:30:32;19.70;70.00
81216;DHT22;70688;52.492;13.420;2023-07-31T08:32:58;19.70;70.10
81216;DHT22;70688;52.492;13.420;2023-07-31T08:35:24;19.90;69.70
81216;DHT22;70688;52.492;13.420;2023-07-31T08:37:51;20.20;68.90
81216;DHT22;70688;52.492;13.420;2023-07-31T08:40:16;20.10;69.60
81216;DHT22;70688;52.492;13.420;2023-07-31T08:42:50;20.20;68.90
81216;DHT22;70688;52.492;13.420;2023-07-31T08:45:17;20.30;67.60
81216;DHT22;70688;52.492;13.420;2023-07-31T08:47:50;20.20;68.30
81216;DHT22;70688;52.492;13.420;2023-07-31T08:50:17;20.00;69.60
81216;DHT22;70688;52.492;13.420;2023-07-31T08:52:44;20.00;69.50
81216;DHT22;70688;52.492;13.420;2023-07-31T08:55:10;19.70;70.80
81216;DHT22;70688;52.492;13.420;2023-07-31T08:57:37;19.60;72.20
81216;DHT22;70688;52.492;13.420;2023-07-31T09:00:05;19.90;70.50
81216;DHT22;70688;52.492;13.420;2023-07-31T09:03:06;20.40;68.00
81216;DHT22;70688;52.492;13.420;2023-07-31T09:05:35;20.40;67.70
81216;DHT22;70688;52.492;13.420;2023-07-31T09:08:02;20.60;66.80
81216;DHT22;70688;52.492;13.420;2023-07-31T09:10:29;20.90;65.50
81216;DHT22;70688;52.492;13.420;2023-07-31T09:12:55;20.90;64.80
81216;DHT22;70688;52.492;13.420;2023-07-31T09:15:22;20.90;64.30
81216;DHT22;70688;52.492;13.420;2023-07-31T09:17:59;21.00;64.00
81216;DHT22;70688;52.492;13.420;2023-07-31T09:20:25;21.00;64.70
81216;DHT22;70688;52.492;13.420;2023-07-31T09:22:51;20.80;65.50
81216;DHT22;70688;52.492;13.420;2023-07-31T09:27:49;20.90;64.00
81216;DHT22;70688;52.492;13.420;2023-07-31T09:30:17;20.80;64.50
81216;DHT22;70688;52.492;13.420;2023-07-31T09:32:44;20.60;65.00
81216;DHT22;70688;52.492;13.420;2023-07-31T09:37:41;20.30;67.20
81216;DHT22;70688;52.492;13.420;2023-07-31T09:40:07;20.20;67.50
81216;DHT22;70688;52.492;13.420;2023-07-31T09:42:34;19.80;68.90
81216;DHT22;70688;52.492;13.420;2023-07-31T09:45:09;19.60;70.10
81216;DHT22;70688;52.492;13.420;2023-07-31T09:47:35;19.70;69.80
81216;DHT22;70688;52.492;13.420;2023-07-31T09:50:00;19.80;69.40
81216;DHT22;70688;52.492;13.420;2023-07-31T09:52:26;19.80;69.20
81216;DHT22;70688;52.492;13.420;2023-07-31T09:54:52;19.70;69.40
81216;DHT22;70688;52.492;13.420;2023-07-31T09:57:21;19.90;69.00
81216;DHT22;70688;52.492;13.420;2023-07-31T09:59:48;19.70;70.10
81216;DHT22;70688;52.492;13.420;2023-07-31T10:02:18;19.60;70.40
81216;DHT22;70688;52.492;13.420;2023-07-31T10:04:49;19.60;71.20
81216;DHT22;70688;52.492;13.420;2023-07-31T10:07:18;19.80;69.90
81216;DHT22;70688;52.492;13.420;2023-07-31T10:09:44;19.90;68.70
81216;DHT22;70688;52.492;13.420;2023-07-31T10:12:12;19.90;68.90
81216;DHT22;70688;52.492;13.420;2023-07-31T10:14:41;20.10;69.10
81216;DHT22;70688;52.492;13.420;2023-07-31T10:17:07;20.50;67.20
81216;DHT22;70688;52.492;13.420;2023-07-31T10:19:35;20.60;66.60
81216;DHT22;70688;52.492;13.420;2023-07-31T10:22:01;20.80;65.60
81216;DHT22;70688;52.492;13.420;2023-07-31T10:24:28;20.70;65.00
81216;DHT22;70688;52.492;13.420;2023-07-31T10:26:57;20.40;66.80
81216;DHT22;70688;52.492;13.420;2023-07-31T10:29:24;20.40;67.30
81216;DHT22;70688;52.492;13.420;2023-07-31T10:31:51;20.10;68.60
81216;DHT22;70688;52.492;13.420;2023-07-31T10:34:17;20.10;69.00
81216;DHT22;70688;52.492;13.420;2023-07-31T10:36:43;20.30;69.70
81216;DHT22;70688;52.492;13.420;2023-07-31T10:39:34;20.60;68.10
81216;DHT22;70688;52.492;13.420;2023-07-31T10:42:10;20.50;67.90
81216;DHT22;70688;52.492;13.420;2023-07-31T10:44:36;20.80;67.60
81216;DHT22;70688;52.492;13.420;2023-07-31T10:47:02;21.10;65.70
81216;DHT22;70688;52.492;13.420;2023-07-31T10:49:29;21.30;65.60
81216;DHT22;70688;52.492;13.420;2023-07-31T10:51:57;21.80;63.50
81216;DHT22;70688;52.492;13.420;2023-07-31T10:54:22;22.40;62.20
81216;DHT22;70688;52.492;13.420;2023-07-31T10:56:51;22.80;60.30
81216;DHT22;70688;52.492;13.420;2023-07-31T10:59:18;22.80;59.10
81216;DHT22;70688;52.492;13.420;2023-07-31T11:04:23;23.10;57.50
81216;DHT22;70688;52.492;13.420;2023-07-31T11:06:59;23.00;58.50
81216;DHT22;70688;52.492;13.420;2023-07-31T11:09:31;22.90;57.70
81216;DHT22;70688;52.492;13.420;2023-07-31T11:12:00;22.90;57.30
81216;DHT22;70688;52.492;13.420;2023-07-31T11:14:25;23.30;56.70
81216;DHT22;70688;52.492;13.420;2023-07-31T11:16:51;23.20;56.50
81216;DHT22;70688;52.492;13.420;2023-07-31T11:19:24;22.90;55.00
81216;DHT22;70688;52.492;13.420;2023-07-31T11:21:53;22.60;55.70
81216;DHT22;70688;52.492;13.420;2023-07-31T11:24:20;22.60;56.10
81216;DHT22;70688;52.492;13.420;2023-07-31T11:26:52;22.60;56.70
81216;DHT22;70688;52.492;13.420;2023-07-31T11:29:19;22.80;55.60
81216;DHT22;70688;52.492;13.420;2023-07-31T11:31:47;23.00;54.40
81216;DHT22;70688;52.492;13.420;2023-07-31T11:34:15;22.90;55.60
81216;DHT22;70688;52.492;13.420;2023-07-31T11:36:53;23.10;54.30
81216;DHT22;70688;52.492;13.420;2023-07-31T11:39:18;23.30;52.60
81216;DHT22;70688;52.492;13.420;2023-07-31T11:41:44;23.30;52.60
81216;DHT22;70688;52.492;13.420;2023-07-31T11:44:09;22.90;53.40
81216;DHT22;70688;52.492;13.420;2023-07-31T11:46:35;22.80;53.60
81216;DHT22;70688;52.492;13.420;2023-07-31T11:49:01;22.50;54.30
81216;DHT22;70688;52.492;13.420;2023-07-31T11:51:27;22.40;54.00
81216;DHT22;70688;52.492;13.420;2023-07-31T11:53:57;22.40;54.40
81216;DHT22;70688;52.492;13.420;2023-07-31T11:56:24;22.30;54.30
81216;DHT22;70688;52.492;13.420;2023-07-31T11:58:57;22.30;54.40
81216;DHT22;70688;52.492;13.420;2023-07-31T12:01:24;22.20;54.80
81216;DHT22;70688;52.492;13.420;2023-07-31T12:03:50;22.10;54.60
81216;DHT22;70688;52.492;13.420;2023-07-31T12:06:16;21.90;55.50
81216;DHT22;70688;52.492;13.420;2023-07-31T12:08:42;21.80;55.60
81216;DHT22;70688;52.492;13.420;2023-07-31T12:11:09;21.70;56.20
81216;DHT22;70688;52.492;13.420;2023-07-31T12:13:35;21.90;56.10
81216;DHT22;70688;52.492;13.420;2023-07-31T12:16:02;22.30;55.00
81216;DHT22;70688;52.492;13.420;2023-07-31T12:18:30;22.40;55.00
81216;DHT22;70688;52.492;13.420;2023-07-31T12:20:58;22.50;53.90
81216;DHT22;70688;52.492;13.420;2023-07-31T12:23:31;22.60;53.50
81216;DHT22;70688;52.492;13.420;2023-07-31T12:26:02;22.80;52.30
81216;DHT22;70688;52.492;13.420;2023-07-31T12:28:28;22.90;52.20
81216;DHT22;70688;52.492;13.420;2023-07-31T12:30:57;22.90;52.90
81216;DHT22;70688;52.492;13.420;2023-07-31T12:33:31;22.70;52.70
81216;DHT22;70688;52.492;13.420;2023-07-31T12:35:57;22.70;52.60
81216;DHT22;70688;52.492;13.420;2023-07-31T12:38:22;22.80;52.80
81216;DHT22;70688;52.492;13.420;2023-07-31T12:40:48;23.10;51.50
81216;DHT22;70688;52.492;13.420;2023-07-31T12:43:13;23.10;50.80
81216;DHT22;70688;52.492;13.420;2023-07-31T12:45:39;23.20;51.10
81216;DHT22;70688;52.492;13.420;2023-07-31T12:48:05;23.40;50.90
81216;DHT22;70688;52.492;13.420;2023-07-31T12:50:30;23.50;50.90
81216;DHT22;70688;52.492;13.420;2023-07-31T12:52:57;23.60;50.60
81216;DHT22;70688;52.492;13.420;2023-07-31T12:55:23;23.60;50.10
81216;DHT22;70688;52.492;13.420;2023-07-31T12:57:50;23.40;51.30
81216;DHT22;70688;52.492;13.420;2023-07-31T13:00:16;23.50;51.20
81216;DHT22;70688;52.492;13.420;2023-07-31T13:02:41;23.30;51.10
81216;DHT22;70688;52.492;13.420;2023-07-31T13:05:08;22.90;52.10
81216;DHT22;70688;52.492;13.420;2023-07-31T13:07:33;22.80;53.00
81216;DHT22;70688;52.492;13.420;2023-07-31T13:09:59;22.70;52.60
81216;DHT22;70688;52.492;13.420;2023-07-31T13:12:25;22.60;53.00
81216;DHT22;70688;52.492;13.420;2023-07-31T13:14:51;22.60;53.00
81216;DHT22;70688;52.492;13.420;2023-07-31T13:17:17;22.30;53.50
81216;DHT22;70688;52.492;13.420;2023-07-31T13:19:43;22.40;53.20
81216;DHT22;70688;52.492;13.420;2023-07-31T13:22:08;22.50;53.30
81216;DHT22;70688;52.492;13.420;2023-07-31T13:24:34;22.30;54.10
81216;DHT22;70688;52.492;13.420;2023-07-31T13:27:00;22.40;53.90
81216;DHT22;70688;52.492;13.420;2023-07-31T13:29:25;22.30;54.10
81216;DHT22;70688;52.492;13.420;2023-07-31T13:31:52;22.40;54.20
81216;DHT22;70688;52.492;13.420;2023-07-31T13:34:17;22.60;54.20
81216;DHT22;70688;52.492;13.420;2023-07-31T13:36:43;22.50;54.30
81216;DHT22;70688;52.492;13.420;2023-07-31T13:39:09;22.50;54.20
81216;DHT22;70688;52.492;13.420;2023-07-31T13:41:35;23.00;53.00
81216;DHT22;70688;52.492;13.420;2023-07-31T13:44:00;23.30;51.80
81216;DHT22;70688;52.492;13.420;2023-07-31T13:46:26;23.60;50.90
81216;DHT22;70688;52.492;13.420;2023-07-31T13:48:52;23.70;50.70
81216;DHT22;70688;52.492;13.420;2023-07-31T13:51:21;23.70;51.00
81216;DHT22;70688;52.492;13.420;2023-07-31T13:53:47;23.90;50.60
81216;DHT22;70688;52.492;13.420;2023-07-31T13:56:12;24.20;50.00
81216;DHT22;70688;52.492;13.420;2023-07-31T13:58:38;24.00;49.80
81216;DHT22;70688;52.492;13.420;2023-07-31T14:01:04;23.80;50.30
81216;DHT22;70688;52.492;13.420;2023-07-31T14:03:30;23.40;51.00
81216;DHT22;70688;52.492;13.420;2023-07-31T14:05:59;23.40;51.40
81216;DHT22;70688;52.492;13.420;2023-07-31T14:08:24;23.50;50.90
81216;DHT22;70688;52.492;13.420;2023-07-31T14:10:50;23.60;50.90
81216;DHT22;70688;52.492;13.420;2023-07-31T14:13:15;23.50;51.30
81216;DHT22;70688;52.492;13.420;2023-07-31T14:15:44;23.50;51.40
81216;DHT22;70688;52.492;13.420;2023-07-31T14:18:10;23.50;51.70
81216;DHT22;70688;52.492;13.420;2023-07-31T14:20:35;23.80;51.00
81216;DHT22;70688;52.492;13.420;2023-07-31T14:23:02;23.70;50.80
81216;DHT22;70688;52.492;13.420;2023-07-31T14:25:28;23.70;50.90
81216;DHT22;70688;52.492;13.420;2023-07-31T14:27:54;23.50;51.90
81216;DHT22;70688;52.492;13.420;2023-07-31T14:30:19;23.50;51.30
81216;DHT22;70688;52.492;13.420;2023-07-31T14:32:46;23.40;51.90
81216;DHT22;70688;52.492;13.420;2023-07-31T14:35:11;23.40;51.70
81216;DHT22;70688;52.492;13.420;2023-07-31T14:37:41;23.50;51.60
81216;DHT22;70688;52.492;13.420;2023-07-31T14:40:09;23.40;51.20
81216;DHT22;70688;52.492;13.420;2023-07-31T14:42:35;23.50;50.90
81216;DHT22;70688;52.492;13.420;2023-07-31T14:45:02;23.70;50.30
81216;DHT22;70688;52.492;13.420;2023-07-31T14:47:28;23.80;50.20
81216;DHT22;70688;52.492;13.420;2023-07-31T14:49:53;23.60;50.50
81216;DHT22;70688;52.492;13.420;2023-07-31T14:52:19;23.50;50.50
81216;DHT22;70688;52.492;13.420;2023-07-31T14:54:45;23.60;50.20
81216;DHT22;70688;52.492;13.420;2023-07-31T14:57:10;23.40;50.30
81216;DHT22;70688;52.492;13.420;2023-07-31T14:59:36;23.60;49.60
81216;DHT22;70688;52.492;13.420;2023-07-31T15:02:02;23.50;49.80
81216;DHT22;70688;52.492;13.420;2023-07-31T15:04:28;23.40;50.30
81216;DHT22;70688;52.492;13.420;2023-07-31T15:06:55;23.30;50.70
81216;DHT22;70688;52.492;13.420;2023-07-31T15:09:20;23.50;50.30
81216;DHT22;70688;52.492;13.420;2023-07-31T15:11:46;23.40;50.20
81216;DHT22;70688;52.492;13.420;2023-07-31T15:14:12;23.40;50.60
81216;DHT22;70688;52.492;13.420;2023-07-31T15:16:38;23.10;51.00
81216;DHT22;70688;52.492;13.420;2023-07-31T15:19:03;23.10;51.80
81216;DHT22;70688;52.492;13.420;2023-07-31T15:21:29;23.10;52.30
81216;DHT22;70688;52.492;13.420;2023-07-31T15:23:55;22.90;52.80
81216;DHT22;70688;52.492;13.420;2023-07-31T15:26:21;22.80;55.00